Terminal Aerodrome Forecast
Issued by NWS

Home | Current Version | Previous Version | Text Only | Print | Product List | Glossary On
Versions: 1 2 3 4 5 6 7 8 9 10 11 12 13 14 15 16 17 18 19 20 21 22 23 24 25 26 27 28 29 30
000
FTUS43 KDLH 280540
TAFHIB
TAF
KHIB 280540Z 2806/2906 04004KT P6SM -DZ OVC015
     FM280800 VRB03KT 4SM BR OVC007
      TEMPO 2810/2813 2SM BR OVC004
     FM281700 VRB03KT P6SM OVC015
     FM282100 VRB03KT P6SM VCSH OVC025
     FM290300 VRB03KT 4SM BR VCSH SCT005 OVC012=

USA.gov is the U.S. government's official web portal to all federal, state and local government web resources and services.